Bruk link Alternativ webside om du vil se statistikk,rapport,graf,analyse og mye mer.

Lynradar: storm image Ingen tordenbyger registrert..



Vårt webkamera mer informasjon My webcam


Kamera på Foreneset mer informasjon webcam on foreneset


Nedbørsradar  rain snow radar


Besøk vår andre værside:

Alternativ webside

iphone versjon

Nettbrett versjon

Foreneset
verstasjon



Ikke nødvendig med spesiell oppmerksomhet.    Det er ingen advarsler

Nære METAR rapporter

     
ENZV - Stavanger
oppdatert: 05-12-2020 11:50
Nære Byger, For det meste skyet  
Nære Byger, For det meste skyet  
   Vind: NNØ 1.5 m/s
Vind: NNØ 1.5 m/s
Temperatur: 6°C
Wind Chill: 5°C
Duggpunkt: 2°C
Fuktighet: 76%
Barometer: 1002 hPa
Skyer: For det meste skyet
Sikt: mer enn 10 km
Skydetaljer: Få Skyer 914.4 m,
For det meste skyet 1371.6 m
ENZV 051050Z 03003KT 9999 VCSH FEW030 BKN045 06/02 Q1002 NOSIG
ENHD - Haugesund
oppdatert: 05-12-2020 11:50
Overskyet  
Overskyet  
   Vind: ØNØ 2.6 m/s
Vind: ØNØ 2.6 m/s
Temperatur: 6°C
Wind Chill: 4°C
Duggpunkt: 0°C
Fuktighet: 66%
Barometer: 1003 hPa
Skyer: Overskyet
Sikt: mer enn 10 km
Skydetaljer: For det meste skyet 1158.2 m,
For det meste skyet 1676.4 m,
Overskyet 2011.7 m
ENHD 051050Z AUTO 07005KT 9999 BKN038/// BKN055/// OVC066/// 06/M00 Q1003
ENBR - Bergen
oppdatert: 05-12-2020 11:50
For det meste skyet  
For det meste skyet  
   Vind: NØ 2.1 m/s
Vind: NØ 2.1 m/s
Temperatur: 2°C
Wind Chill: 0°C
Duggpunkt: -1°C
Fuktighet: 81%
Barometer: 1003 hPa
Skyer: For det meste skyet
Sikt: mer enn 10 km
Skydetaljer: Få Skyer 1371.6 m,
For det meste skyet 1889.8 m
ENBR 051050Z 04004KT 9999 FEW045 BKN062 02/M01 Q1003 NOSIG RMK WIND 1200FT 04002KT
ENCN - Kristiansand
oppdatert: 05-12-2020 11:50
Lett regn, yr, For det meste skyet  
Lett regn, yr, For det meste skyet  
   Vind: NØ 7.2 m/s
Vind: NØ 7.2 m/s
Temperatur: 4°C
Wind Chill: -1°C
Duggpunkt: 3°C
Fuktighet: 93%
Barometer: 1003 hPa
Skyer: For det meste skyet
Sikt: mer enn 10 km
Skydetaljer: For det meste skyet 213.4 m
ENCN 051050Z 04014KT 9999 -RADZ BKN007 04/03 Q1003
ENGM - Oslo
oppdatert: 05-12-2020 11:50
Overskyet  
Overskyet  
   Vind: NØ 3.1 m/s
Vind: NØ 3.1 m/s
Temperatur: 1°C
Wind Chill: -2°C
Duggpunkt: 0°C
Fuktighet: 93%
Barometer: 1005 hPa
Skyer: Overskyet
Sikt: 9 km
Skydetaljer: Delvis Skyet 91.4 m,
Overskyet 243.8 m
ENGM 051050Z 04006KT 9000 SCT003 OVC008 01/00 Q1005 TEMPO 4000 BR OVC004
ENVA - Trondheim
oppdatert: 05-12-2020 11:50
Klart  
Klart  
   Vind: Øst 1.5 m/s
Vind: Øst 1.5 m/s
Temperatur: 0°C
Wind Chill: -2°C
Duggpunkt: -2°C
Fuktighet: 87%
Barometer: 1005 hPa
Sikt: mer enn 10 km
Skydetaljer: Klart
ENVA 051050Z 09003KT CAVOK 00/M02 Q1005 NOSIG RMK WIND 670FT VRB01KT
    

Script utviklet av  Saratoga-weather.org Tilrettelagt for malen av  Weerstation Leuven

Du finner vår vær info også på:

UK Metoffice

European Weather Network

WeatherCloud

Weather Underground

Utstyr vi bruker:

Værstsjon
Davis VP2

Værprogram
Weather Display

Davis VP2

Weather Display